sensor_id;sensor_type;location;lat;lon;timestamp;temperature;humidity
2409;DHT22;8463;48.094;7.970;2022-07-23T00:00:49;24.90;16.60
2409;DHT22;8463;48.094;7.970;2022-07-23T00:03:15;24.90;17.20
2409;DHT22;8463;48.094;7.970;2022-07-23T00:05:41;24.90;17.60
2409;DHT22;8463;48.094;7.970;2022-07-23T00:08:07;25.00;17.10
2409;DHT22;8463;48.094;7.970;2022-07-23T00:10:33;25.00;17.10
2409;DHT22;8463;48.094;7.970;2022-07-23T00:12:59;25.00;17.70
2409;DHT22;8463;48.094;7.970;2022-07-23T00:15:24;25.00;17.70
2409;DHT22;8463;48.094;7.970;2022-07-23T00:17:51;25.00;14.70
2409;DHT22;8463;48.094;7.970;2022-07-23T00:20:17;25.10;16.50
2409;DHT22;8463;48.094;7.970;2022-07-23T00:22:50;25.10;15.10
2409;DHT22;8463;48.094;7.970;2022-07-23T00:25:16;25.00;13.60
2409;DHT22;8463;48.094;7.970;2022-07-23T00:27:42;25.00;13.60
2409;DHT22;8463;48.094;7.970;2022-07-23T00:30:08;25.00;13.80
2409;DHT22;8463;48.094;7.970;2022-07-23T00:32:51;25.10;15.50
2409;DHT22;8463;48.094;7.970;2022-07-23T00:35:20;25.00;15.10
2409;DHT22;8463;48.094;7.970;2022-07-23T00:37:46;25.00;14.90
2409;DHT22;8463;48.094;7.970;2022-07-23T00:40:12;25.00;16.90
2409;DHT22;8463;48.094;7.970;2022-07-23T00:42:38;25.00;17.70
2409;DHT22;8463;48.094;7.970;2022-07-23T00:45:05;25.00;17.30
2409;DHT22;8463;48.094;7.970;2022-07-23T00:47:31;25.00;17.70
2409;DHT22;8463;48.094;7.970;2022-07-23T00:49:56;25.00;17.70
2409;DHT22;8463;48.094;7.970;2022-07-23T00:52:22;25.00;16.70
2409;DHT22;8463;48.094;7.970;2022-07-23T00:54:48;25.10;15.90
2409;DHT22;8463;48.094;7.970;2022-07-23T00:57:14;25.10;15.90
2409;DHT22;8463;48.094;7.970;2022-07-23T00:59:40;25.10;16.00
2409;DHT22;8463;48.094;7.970;2022-07-23T01:02:05;25.00;16.00
2409;DHT22;8463;48.094;7.970;2022-07-23T01:04:31;24.90;16.40
2409;DHT22;8463;48.094;7.970;2022-07-23T01:06:57;24.90;17.10
2409;DHT22;8463;48.094;7.970;2022-07-23T01:09:23;24.60;18.60
2409;DHT22;8463;48.094;7.970;2022-07-23T01:11:50;24.20;21.00
2409;DHT22;8463;48.094;7.970;2022-07-23T01:14:17;23.70;23.60
2409;DHT22;8463;48.094;7.970;2022-07-23T01:16:45;23.40;28.10
2409;DHT22;8463;48.094;7.970;2022-07-23T01:19:13;23.40;31.10
2409;DHT22;8463;48.094;7.970;2022-07-23T01:21:43;23.40;32.50
2409;DHT22;8463;48.094;7.970;2022-07-23T01:24:10;23.60;33.40
2409;DHT22;8463;48.094;7.970;2022-07-23T01:26:37;23.60;36.10
2409;DHT22;8463;48.094;7.970;2022-07-23T01:29:04;23.60;38.10
2409;DHT22;8463;48.094;7.970;2022-07-23T01:31:30;23.60;39.70
2409;DHT22;8463;48.094;7.970;2022-07-23T01:33:56;23.70;41.20
2409;DHT22;8463;48.094;7.970;2022-07-23T01:36:22;23.70;40.90
2409;DHT22;8463;48.094;7.970;2022-07-23T01:38:48;23.70;40.80
2409;DHT22;8463;48.094;7.970;2022-07-23T01:41:14;23.40;42.00
2409;DHT22;8463;48.094;7.970;2022-07-23T01:43:39;22.90;43.90
2409;DHT22;8463;48.094;7.970;2022-07-23T01:46:05;22.70;45.50
2409;DHT22;8463;48.094;7.970;2022-07-23T01:48:31;22.50;45.80
2409;DHT22;8463;48.094;7.970;2022-07-23T01:50:56;22.50;47.50
2409;DHT22;8463;48.094;7.970;2022-07-23T01:53:22;22.40;48.00
2409;DHT22;8463;48.094;7.970;2022-07-23T01:55:48;22.20;51.10
2409;DHT22;8463;48.094;7.970;2022-07-23T01:58:14;22.30;53.30
2409;DHT22;8463;48.094;7.970;2022-07-23T02:00:39;22.50;52.40
2409;DHT22;8463;48.094;7.970;2022-07-23T02:03:08;22.70;51.90
2409;DHT22;8463;48.094;7.970;2022-07-23T02:05:33;22.80;49.20
2409;DHT22;8463;48.094;7.970;2022-07-23T02:08:00;22.70;47.40
2409;DHT22;8463;48.094;7.970;2022-07-23T02:10:26;22.70;47.60
2409;DHT22;8463;48.094;7.970;2022-07-23T02:12:52;22.80;47.70
2409;DHT22;8463;48.094;7.970;2022-07-23T02:15:17;22.80;47.40
2409;DHT22;8463;48.094;7.970;2022-07-23T02:17:43;22.70;46.00
2409;DHT22;8463;48.094;7.970;2022-07-23T02:20:10;22.40;50.30
2409;DHT22;8463;48.094;7.970;2022-07-23T02:22:36;22.10;50.70
2409;DHT22;8463;48.094;7.970;2022-07-23T02:25:03;21.60;54.60
2409;DHT22;8463;48.094;7.970;2022-07-23T02:27:29;21.80;56.40
2409;DHT22;8463;48.094;7.970;2022-07-23T02:29:55;22.00;55.30
2409;DHT22;8463;48.094;7.970;2022-07-23T02:32:23;21.90;56.30
2409;DHT22;8463;48.094;7.970;2022-07-23T02:34:50;22.10;55.90
2409;DHT22;8463;48.094;7.970;2022-07-23T02:40:16;22.30;52.80
2409;DHT22;8463;48.094;7.970;2022-07-23T02:42:42;22.20;52.80
2409;DHT22;8463;48.094;7.970;2022-07-23T02:45:11;22.20;52.00
2409;DHT22;8463;48.094;7.970;2022-07-23T02:47:42;22.20;52.90
2409;DHT22;8463;48.094;7.970;2022-07-23T02:50:28;22.10;52.50
2409;DHT22;8463;48.094;7.970;2022-07-23T02:52:59;22.20;53.10
2409;DHT22;8463;48.094;7.970;2022-07-23T02:55:25;22.30;52.30
2409;DHT22;8463;48.094;7.970;2022-07-23T02:57:50;22.40;50.80
2409;DHT22;8463;48.094;7.970;2022-07-23T03:00:16;22.30;48.90
2409;DHT22;8463;48.094;7.970;2022-07-23T03:02:42;22.20;50.10
2409;DHT22;8463;48.094;7.970;2022-07-23T03:05:08;22.20;50.50
2409;DHT22;8463;48.094;7.970;2022-07-23T03:07:34;22.20;51.80
2409;DHT22;8463;48.094;7.970;2022-07-23T03:09:59;22.20;51.90
2409;DHT22;8463;48.094;7.970;2022-07-23T03:12:27;22.20;52.00
2409;DHT22;8463;48.094;7.970;2022-07-23T03:14:59;22.00;50.90
2409;DHT22;8463;48.094;7.970;2022-07-23T03:17:26;22.00;50.30
2409;DHT22;8463;48.094;7.970;2022-07-23T03:19:52;21.90;51.30
2409;DHT22;8463;48.094;7.970;2022-07-23T03:22:18;21.90;52.00
2409;DHT22;8463;48.094;7.970;2022-07-23T03:24:44;22.00;52.20
2409;DHT22;8463;48.094;7.970;2022-07-23T03:27:23;22.10;52.70
2409;DHT22;8463;48.094;7.970;2022-07-23T03:29:50;22.10;51.30
2409;DHT22;8463;48.094;7.970;2022-07-23T03:32:15;22.00;52.10
2409;DHT22;8463;48.094;7.970;2022-07-23T03:34:41;22.10;53.00
2409;DHT22;8463;48.094;7.970;2022-07-23T03:37:07;22.20;52.80
2409;DHT22;8463;48.094;7.970;2022-07-23T03:39:32;22.30;51.60
2409;DHT22;8463;48.094;7.970;2022-07-23T03:41:58;22.30;50.90
2409;DHT22;8463;48.094;7.970;2022-07-23T03:44:23;22.30;50.20
2409;DHT22;8463;48.094;7.970;2022-07-23T03:46:49;22.20;50.80
2409;DHT22;8463;48.094;7.970;2022-07-23T03:49:15;22.10;51.50
2409;DHT22;8463;48.094;7.970;2022-07-23T03:51:40;22.10;51.40
2409;DHT22;8463;48.094;7.970;2022-07-23T03:54:06;22.10;50.10
2409;DHT22;8463;48.094;7.970;2022-07-23T03:56:32;22.00;50.80
2409;DHT22;8463;48.094;7.970;2022-07-23T03:58:58;22.00;50.60
2409;DHT22;8463;48.094;7.970;2022-07-23T04:01:23;21.70;51.70
2409;DHT22;8463;48.094;7.970;2022-07-23T04:03:49;21.70;51.70
2409;DHT22;8463;48.094;7.970;2022-07-23T04:06:15;21.90;51.70
2409;DHT22;8463;48.094;7.970;2022-07-23T04:08:40;21.90;50.90
2409;DHT22;8463;48.094;7.970;2022-07-23T04:11:06;21.90;50.80
2409;DHT22;8463;48.094;7.970;2022-07-23T04:13:31;22.00;51.00
2409;DHT22;8463;48.094;7.970;2022-07-23T04:16:00;21.90;50.40
2409;DHT22;8463;48.094;7.970;2022-07-23T04:18:25;21.90;51.30
2409;DHT22;8463;48.094;7.970;2022-07-23T04:20:52;21.90;50.70
2409;DHT22;8463;48.094;7.970;2022-07-23T04:23:17;21.90;50.80
2409;DHT22;8463;48.094;7.970;2022-07-23T04:25:43;21.70;51.10
2409;DHT22;8463;48.094;7.970;2022-07-23T04:28:09;21.30;52.40
2409;DHT22;8463;48.094;7.970;2022-07-23T04:30:35;21.30;53.80
2409;DHT22;8463;48.094;7.970;2022-07-23T04:33:00;21.40;53.90
2409;DHT22;8463;48.094;7.970;2022-07-23T04:35:26;21.50;53.10
2409;DHT22;8463;48.094;7.970;2022-07-23T04:37:52;21.60;51.70
2409;DHT22;8463;48.094;7.970;2022-07-23T04:40:17;21.60;51.00
2409;DHT22;8463;48.094;7.970;2022-07-23T04:42:43;21.50;52.20
2409;DHT22;8463;48.094;7.970;2022-07-23T04:45:09;21.60;52.20
2409;DHT22;8463;48.094;7.970;2022-07-23T04:47:35;21.70;51.00
2409;DHT22;8463;48.094;7.970;2022-07-23T04:50:00;21.70;51.00
2409;DHT22;8463;48.094;7.970;2022-07-23T04:52:26;21.50;51.60
2409;DHT22;8463;48.094;7.970;2022-07-23T04:54:51;21.60;51.40
2409;DHT22;8463;48.094;7.970;2022-07-23T04:57:17;21.80;51.10
2409;DHT22;8463;48.094;7.970;2022-07-23T04:59:43;21.90;51.20
2409;DHT22;8463;48.094;7.970;2022-07-23T05:02:08;22.00;50.60
2409;DHT22;8463;48.094;7.970;2022-07-23T05:04:34;22.00;48.70
2409;DHT22;8463;48.094;7.970;2022-07-23T05:07:00;21.90;47.80
2409;DHT22;8463;48.094;7.970;2022-07-23T05:09:25;22.00;47.60
2409;DHT22;8463;48.094;7.970;2022-07-23T05:11:51;22.10;47.60
2409;DHT22;8463;48.094;7.970;2022-07-23T05:14:17;22.20;47.30
2409;DHT22;8463;48.094;7.970;2022-07-23T05:16:43;22.30;47.10
2409;DHT22;8463;48.094;7.970;2022-07-23T05:19:08;22.50;46.60
2409;DHT22;8463;48.094;7.970;2022-07-23T05:21:34;22.60;45.90
2409;DHT22;8463;48.094;7.970;2022-07-23T05:24:00;22.70;46.00
2409;DHT22;8463;48.094;7.970;2022-07-23T05:26:28;22.80;45.50
2409;DHT22;8463;48.094;7.970;2022-07-23T05:28:54;23.00;45.20
2409;DHT22;8463;48.094;7.970;2022-07-23T05:31:19;23.10;44.30
2409;DHT22;8463;48.094;7.970;2022-07-23T05:33:45;23.20;43.90
2409;DHT22;8463;48.094;7.970;2022-07-23T05:36:11;23.30;42.40
2409;DHT22;8463;48.094;7.970;2022-07-23T05:38:36;23.30;42.50
2409;DHT22;8463;48.094;7.970;2022-07-23T05:41:02;23.20;43.00
2409;DHT22;8463;48.094;7.970;2022-07-23T05:43:28;23.30;43.70
2409;DHT22;8463;48.094;7.970;2022-07-23T05:45:54;23.30;43.00
2409;DHT22;8463;48.094;7.970;2022-07-23T05:48:20;23.40;42.30
2409;DHT22;8463;48.094;7.970;2022-07-23T05:50:46;23.50;42.10
2409;DHT22;8463;48.094;7.970;2022-07-23T05:53:12;23.50;42.10
2409;DHT22;8463;48.094;7.970;2022-07-23T05:55:38;23.50;41.30
2409;DHT22;8463;48.094;7.970;2022-07-23T05:58:04;23.40;41.20
2409;DHT22;8463;48.094;7.970;2022-07-23T06:00:30;23.30;41.70
2409;DHT22;8463;48.094;7.970;2022-07-23T06:02:56;23.20;41.80
2409;DHT22;8463;48.094;7.970;2022-07-23T06:05:22;23.20;42.30
2409;DHT22;8463;48.094;7.970;2022-07-23T06:07:48;23.30;42.30
2409;DHT22;8463;48.094;7.970;2022-07-23T06:10:14;23.30;41.60
2409;DHT22;8463;48.094;7.970;2022-07-23T06:12:41;23.40;41.90
2409;DHT22;8463;48.094;7.970;2022-07-23T06:15:07;23.50;42.10
2409;DHT22;8463;48.094;7.970;2022-07-23T06:17:33;23.50;41.40
2409;DHT22;8463;48.094;7.970;2022-07-23T06:19:59;23.60;41.40
2409;DHT22;8463;48.094;7.970;2022-07-23T06:22:25;23.60;38.60
2409;DHT22;8463;48.094;7.970;2022-07-23T06:24:51;23.20;41.10
2409;DHT22;8463;48.094;7.970;2022-07-23T06:27:17;23.00;43.20
2409;DHT22;8463;48.094;7.970;2022-07-23T06:29:43;22.80;45.90
2409;DHT22;8463;48.094;7.970;2022-07-23T06:32:09;22.80;46.10
2409;DHT22;8463;48.094;7.970;2022-07-23T06:34:35;22.80;46.00
2409;DHT22;8463;48.094;7.970;2022-07-23T06:37:00;22.80;46.10
2409;DHT22;8463;48.094;7.970;2022-07-23T06:39:26;22.80;46.10
2409;DHT22;8463;48.094;7.970;2022-07-23T06:41:52;23.00;43.50
2409;DHT22;8463;48.094;7.970;2022-07-23T06:44:18;23.20;41.80
2409;DHT22;8463;48.094;7.970;2022-07-23T06:46:44;23.10;40.00
2409;DHT22;8463;48.094;7.970;2022-07-23T06:49:09;23.20;41.20
2409;DHT22;8463;48.094;7.970;2022-07-23T06:51:35;23.10;41.00
2409;DHT22;8463;48.094;7.970;2022-07-23T06:54:01;23.00;41.60
2409;DHT22;8463;48.094;7.970;2022-07-23T06:56:27;23.10;44.40
2409;DHT22;8463;48.094;7.970;2022-07-23T06:58:53;23.10;40.40
2409;DHT22;8463;48.094;7.970;2022-07-23T07:01:18;23.10;41.70
2409;DHT22;8463;48.094;7.970;2022-07-23T07:03:44;23.10;42.20
2409;DHT22;8463;48.094;7.970;2022-07-23T07:06:10;23.00;42.80
2409;DHT22;8463;48.094;7.970;2022-07-23T07:08:35;22.90;43.40
2409;DHT22;8463;48.094;7.970;2022-07-23T07:11:01;23.10;43.80
2409;DHT22;8463;48.094;7.970;2022-07-23T07:13:27;23.10;40.70
2409;DHT22;8463;48.094;7.970;2022-07-23T07:15:53;23.20;40.80
2409;DHT22;8463;48.094;7.970;2022-07-23T07:18:19;23.10;42.70
2409;DHT22;8463;48.094;7.970;2022-07-23T07:20:44;23.10;46.10
2409;DHT22;8463;48.094;7.970;2022-07-23T07:23:10;23.10;46.40
2409;DHT22;8463;48.094;7.970;2022-07-23T07:25:36;23.30;46.60
2409;DHT22;8463;48.094;7.970;2022-07-23T07:28:01;23.30;46.60
2409;DHT22;8463;48.094;7.970;2022-07-23T07:30:27;23.10;46.30
2409;DHT22;8463;48.094;7.970;2022-07-23T07:32:52;23.20;47.00
2409;DHT22;8463;48.094;7.970;2022-07-23T07:35:18;23.30;46.60
2409;DHT22;8463;48.094;7.970;2022-07-23T07:37:44;23.30;46.60
2409;DHT22;8463;48.094;7.970;2022-07-23T07:40:09;23.30;46.60
2409;DHT22;8463;48.094;7.970;2022-07-23T07:42:44;23.20;46.40
2409;DHT22;8463;48.094;7.970;2022-07-23T07:45:10;23.20;46.50
2409;DHT22;8463;48.094;7.970;2022-07-23T07:47:36;23.10;46.30
2409;DHT22;8463;48.094;7.970;2022-07-23T07:50:01;23.10;46.40
2409;DHT22;8463;48.094;7.970;2022-07-23T07:52:27;23.10;46.40
2409;DHT22;8463;48.094;7.970;2022-07-23T07:54:53;23.40;46.60
2409;DHT22;8463;48.094;7.970;2022-07-23T07:57:18;23.60;43.20
2409;DHT22;8463;48.094;7.970;2022-07-23T07:59:44;23.60;42.20
2409;DHT22;8463;48.094;7.970;2022-07-23T08:02:09;23.90;43.30
2409;DHT22;8463;48.094;7.970;2022-07-23T08:04:35;24.10;41.40
2409;DHT22;8463;48.094;7.970;2022-07-23T08:07:01;24.20;41.10
2409;DHT22;8463;48.094;7.970;2022-07-23T08:09:26;24.30;39.90
2409;DHT22;8463;48.094;7.970;2022-07-23T08:11:52;24.40;40.10
2409;DHT22;8463;48.094;7.970;2022-07-23T08:14:18;24.80;39.60
2409;DHT22;8463;48.094;7.970;2022-07-23T08:16:44;25.10;37.50
2409;DHT22;8463;48.094;7.970;2022-07-23T08:19:10;25.10;35.50
2409;DHT22;8463;48.094;7.970;2022-07-23T08:21:35;25.20;35.80
2409;DHT22;8463;48.094;7.970;2022-07-23T08:24:01;25.40;31.70
2409;DHT22;8463;48.094;7.970;2022-07-23T08:26:27;25.60;29.70
2409;DHT22;8463;48.094;7.970;2022-07-23T08:28:52;25.80;27.50
2409;DHT22;8463;48.094;7.970;2022-07-23T08:31:18;25.60;24.40
2409;DHT22;8463;48.094;7.970;2022-07-23T08:33:44;25.70;25.90
2409;DHT22;8463;48.094;7.970;2022-07-23T08:36:09;25.80;25.90
2409;DHT22;8463;48.094;7.970;2022-07-23T08:38:35;26.00;22.20
2409;DHT22;8463;48.094;7.970;2022-07-23T08:41:01;26.10;23.40
2409;DHT22;8463;48.094;7.970;2022-07-23T08:43:29;26.10;23.80
2409;DHT22;8463;48.094;7.970;2022-07-23T08:45:58;25.90;22.80
2409;DHT22;8463;48.094;7.970;2022-07-23T08:48:29;25.80;23.40
2409;DHT22;8463;48.094;7.970;2022-07-23T08:50:57;25.60;24.00
2409;DHT22;8463;48.094;7.970;2022-07-23T08:53:24;25.60;23.30
2409;DHT22;8463;48.094;7.970;2022-07-23T08:55:55;25.50;23.80
2409;DHT22;8463;48.094;7.970;2022-07-23T08:58:22;25.30;24.40
2409;DHT22;8463;48.094;7.970;2022-07-23T09:00:48;25.30;23.20
2409;DHT22;8463;48.094;7.970;2022-07-23T09:03:26;25.20;23.20
2409;DHT22;8463;48.094;7.970;2022-07-23T09:05:53;25.30;23.30
2409;DHT22;8463;48.094;7.970;2022-07-23T09:08:23;25.30;22.00
2409;DHT22;8463;48.094;7.970;2022-07-23T09:11:09;25.30;22.50
2409;DHT22;8463;48.094;7.970;2022-07-23T09:13:49;25.30;23.20
2409;DHT22;8463;48.094;7.970;2022-07-23T09:18:43;25.50;22.80
2409;DHT22;8463;48.094;7.970;2022-07-23T09:21:11;25.50;23.50
2409;DHT22;8463;48.094;7.970;2022-07-23T09:26:25;25.50;21.90
2409;DHT22;8463;48.094;7.970;2022-07-23T09:31:18;25.50;24.20
2409;DHT22;8463;48.094;7.970;2022-07-23T09:33:43;25.50;23.10
2409;DHT22;8463;48.094;7.970;2022-07-23T09:36:09;25.50;24.00
2409;DHT22;8463;48.094;7.970;2022-07-23T09:38:35;25.70;23.20
2409;DHT22;8463;48.094;7.970;2022-07-23T09:41:12;25.90;22.10
2409;DHT22;8463;48.094;7.970;2022-07-23T09:43:39;26.00;22.20
2409;DHT22;8463;48.094;7.970;2022-07-23T09:48:45;26.60;19.20
2409;DHT22;8463;48.094;7.970;2022-07-23T09:51:10;26.70;19.50
2409;DHT22;8463;48.094;7.970;2022-07-23T09:53:36;26.70;18.70
2409;DHT22;8463;48.094;7.970;2022-07-23T09:56:02;26.90;19.10
2409;DHT22;8463;48.094;7.970;2022-07-23T09:58:28;27.10;18.90
2409;DHT22;8463;48.094;7.970;2022-07-23T10:00:57;27.20;18.30
2409;DHT22;8463;48.094;7.970;2022-07-23T10:03:23;27.20;18.10
2409;DHT22;8463;48.094;7.970;2022-07-23T10:05:50;27.30;19.00
2409;DHT22;8463;48.094;7.970;2022-07-23T10:08:18;27.20;17.20
2409;DHT22;8463;48.094;7.970;2022-07-23T10:10:46;27.20;16.80
2409;DHT22;8463;48.094;7.970;2022-07-23T10:13:14;27.40;16.80
2409;DHT22;8463;48.094;7.970;2022-07-23T10:15:45;27.60;17.30
2409;DHT22;8463;48.094;7.970;2022-07-23T10:18:11;27.50;15.00
2409;DHT22;8463;48.094;7.970;2022-07-23T10:20:38;27.70;15.50
2409;DHT22;8463;48.094;7.970;2022-07-23T10:25:55;27.50;13.80
2409;DHT22;8463;48.094;7.970;2022-07-23T10:28:31;27.40;14.20
2409;DHT22;8463;48.094;7.970;2022-07-23T10:31:26;27.50;15.10
2409;DHT22;8463;48.094;7.970;2022-07-23T10:34:21;27.80;13.40
2409;DHT22;8463;48.094;7.970;2022-07-23T10:36:54;27.80;12.50
2409;DHT22;8463;48.094;7.970;2022-07-23T10:39:34;27.80;13.60
2409;DHT22;8463;48.094;7.970;2022-07-23T10:42:13;27.50;12.10
2409;DHT22;8463;48.094;7.970;2022-07-23T10:44:48;27.40;14.60
2409;DHT22;8463;48.094;7.970;2022-07-23T10:47:30;27.50;12.60
2409;DHT22;8463;48.094;7.970;2022-07-23T10:50:28;27.70;12.00
2409;DHT22;8463;48.094;7.970;2022-07-23T10:58:01;27.90;11.20
2409;DHT22;8463;48.094;7.970;2022-07-23T11:00:31;28.20;10.10
2409;DHT22;8463;48.094;7.970;2022-07-23T11:03:05;28.20;10.20
2409;DHT22;8463;48.094;7.970;2022-07-23T11:05:44;28.20;9.80
2409;DHT22;8463;48.094;7.970;2022-07-23T11:16:07;28.40;8.40
2409;DHT22;8463;48.094;7.970;2022-07-23T11:24:14;28.90;8.60
2409;DHT22;8463;48.094;7.970;2022-07-23T11:34:47;28.30;11.40
2409;DHT22;8463;48.094;7.970;2022-07-23T11:37:32;28.60;9.90
2409;DHT22;8463;48.094;7.970;2022-07-23T11:39:58;28.60;10.50
2409;DHT22;8463;48.094;7.970;2022-07-23T11:42:24;28.30;10.20
2409;DHT22;8463;48.094;7.970;2022-07-23T11:44:50;28.40;11.50
2409;DHT22;8463;48.094;7.970;2022-07-23T11:47:22;28.60;10.20
2409;DHT22;8463;48.094;7.970;2022-07-23T11:52:20;28.50;10.70
2409;DHT22;8463;48.094;7.970;2022-07-23T11:54:58;28.40;10.30
2409;DHT22;8463;48.094;7.970;2022-07-23T11:57:26;28.30;11.40
2409;DHT22;8463;48.094;7.970;2022-07-23T12:02:41;28.30;11.50
2409;DHT22;8463;48.094;7.970;2022-07-23T12:05:12;28.40;11.00
2409;DHT22;8463;48.094;7.970;2022-07-23T12:07:40;28.60;10.70
2409;DHT22;8463;48.094;7.970;2022-07-23T12:12:40;28.70;10.20
2409;DHT22;8463;48.094;7.970;2022-07-23T12:15:07;28.70;8.10
2409;DHT22;8463;48.094;7.970;2022-07-23T12:17:36;28.80;9.50
2409;DHT22;8463;48.094;7.970;2022-07-23T12:20:04;29.00;9.50
2409;DHT22;8463;48.094;7.970;2022-07-23T12:22:43;29.40;7.90
2409;DHT22;8463;48.094;7.970;2022-07-23T12:25:12;29.50;6.40
2409;DHT22;8463;48.094;7.970;2022-07-23T12:27:38;29.30;7.60
2409;DHT22;8463;48.094;7.970;2022-07-23T12:30:25;29.20;7.20
2409;DHT22;8463;48.094;7.970;2022-07-23T12:32:54;29.20;7.80
2409;DHT22;8463;48.094;7.970;2022-07-23T12:35:21;29.10;7.20
2409;DHT22;8463;48.094;7.970;2022-07-23T12:37:48;29.20;7.00
2409;DHT22;8463;48.094;7.970;2022-07-23T12:40:35;29.20;7.80
2409;DHT22;8463;48.094;7.970;2022-07-23T12:43:07;29.30;7.90
2409;DHT22;8463;48.094;7.970;2022-07-23T12:45:57;29.70;7.20
2409;DHT22;8463;48.094;7.970;2022-07-23T12:53:26;29.50;6.60
2409;DHT22;8463;48.094;7.970;2022-07-23T12:56:08;29.70;7.10
2409;DHT22;8463;48.094;7.970;2022-07-23T12:58:58;30.00;6.20
2409;DHT22;8463;48.094;7.970;2022-07-23T13:01:34;29.70;5.40
2409;DHT22;8463;48.094;7.970;2022-07-23T13:06:28;29.60;4.90
2409;DHT22;8463;48.094;7.970;2022-07-23T13:08:54;29.70;6.80
2409;DHT22;8463;48.094;7.970;2022-07-23T13:11:19;30.00;5.30
2409;DHT22;8463;48.094;7.970;2022-07-23T13:13:45;30.30;5.40
2409;DHT22;8463;48.094;7.970;2022-07-23T13:16:11;30.20;4.20
2409;DHT22;8463;48.094;7.970;2022-07-23T13:18:36;29.90;4.40
2409;DHT22;8463;48.094;7.970;2022-07-23T13:21:02;29.90;6.30
2409;DHT22;8463;48.094;7.970;2022-07-23T13:23:28;30.20;5.80
2409;DHT22;8463;48.094;7.970;2022-07-23T13:25:54;30.40;4.30
2409;DHT22;8463;48.094;7.970;2022-07-23T13:28:21;30.80;4.50
2409;DHT22;8463;48.094;7.970;2022-07-23T13:30:47;31.30;3.40
2409;DHT22;8463;48.094;7.970;2022-07-23T13:33:22;31.50;2.10
2409;DHT22;8463;48.094;7.970;2022-07-23T13:35:48;31.70;2.20
2409;DHT22;8463;48.094;7.970;2022-07-23T13:38:15;31.90;1.00
2409;DHT22;8463;48.094;7.970;2022-07-23T13:40:43;32.00;1.40
2409;DHT22;8463;48.094;7.970;2022-07-23T13:43:11;32.10;1.00
2409;DHT22;8463;48.094;7.970;2022-07-23T13:45:37;32.10;1.00
2409;DHT22;8463;48.094;7.970;2022-07-23T13:48:04;32.00;1.00
2409;DHT22;8463;48.094;7.970;2022-07-23T13:50:30;31.30;2.00
2409;DHT22;8463;48.094;7.970;2022-07-23T13:52:56;31.50;2.30
2409;DHT22;8463;48.094;7.970;2022-07-23T13:55:22;31.90;1.80
2409;DHT22;8463;48.094;7.970;2022-07-23T13:57:47;31.80;1.00
2409;DHT22;8463;48.094;7.970;2022-07-23T14:00:14;31.70;1.00
2409;DHT22;8463;48.094;7.970;2022-07-23T14:02:40;31.40;1.90
2409;DHT22;8463;48.094;7.970;2022-07-23T14:05:08;31.20;2.40
2409;DHT22;8463;48.094;7.970;2022-07-23T14:07:35;31.20;2.00
2409;DHT22;8463;48.094;7.970;2022-07-23T14:10:02;31.20;2.30
2409;DHT22;8463;48.094;7.970;2022-07-23T14:12:28;31.00;1.30
2409;DHT22;8463;48.094;7.970;2022-07-23T14:15:05;30.70;3.80
2409;DHT22;8463;48.094;7.970;2022-07-23T14:17:31;30.30;4.30
2409;DHT22;8463;48.094;7.970;2022-07-23T14:19:58;30.00;3.40
2409;DHT22;8463;48.094;7.970;2022-07-23T14:22:24;30.20;4.20
2409;DHT22;8463;48.094;7.970;2022-07-23T14:24:50;29.90;4.70
2409;DHT22;8463;48.094;7.970;2022-07-23T14:27:33;29.70;5.30
2409;DHT22;8463;48.094;7.970;2022-07-23T14:32:56;29.40;6.40
2409;DHT22;8463;48.094;7.970;2022-07-23T14:35:33;29.50;6.60
2409;DHT22;8463;48.094;7.970;2022-07-23T14:37:59;29.80;6.80
2409;DHT22;8463;48.094;7.970;2022-07-23T14:40:27;30.40;6.40
2409;DHT22;8463;48.094;7.970;2022-07-23T14:43:05;30.90;4.60
2409;DHT22;8463;48.094;7.970;2022-07-23T14:46:11;30.80;3.60
2409;DHT22;8463;48.094;7.970;2022-07-23T14:48:53;30.30;4.20
2409;DHT22;8463;48.094;7.970;2022-07-23T14:51:22;30.00;4.10
2409;DHT22;8463;48.094;7.970;2022-07-23T14:53:51;30.10;5.50
2409;DHT22;8463;48.094;7.970;2022-07-23T14:56:17;30.10;4.10
2409;DHT22;8463;48.094;7.970;2022-07-23T14:58:42;30.10;4.10
2409;DHT22;8463;48.094;7.970;2022-07-23T15:01:08;30.30;3.40
2409;DHT22;8463;48.094;7.970;2022-07-23T15:03:46;30.40;3.40
2409;DHT22;8463;48.094;7.970;2022-07-23T15:06:16;30.60;3.50
2409;DHT22;8463;48.094;7.970;2022-07-23T15:08:42;30.50;3.00
2409;DHT22;8463;48.094;7.970;2022-07-23T15:11:07;30.50;2.70
2409;DHT22;8463;48.094;7.970;2022-07-23T15:13:35;30.50;3.90
2409;DHT22;8463;48.094;7.970;2022-07-23T15:16:03;30.40;3.30
2409;DHT22;8463;48.094;7.970;2022-07-23T15:18:29;30.40;2.80
2409;DHT22;8463;48.094;7.970;2022-07-23T15:20:55;30.60;3.10
2409;DHT22;8463;48.094;7.970;2022-07-23T15:23:21;30.80;2.00
2409;DHT22;8463;48.094;7.970;2022-07-23T15:25:46;30.60;1.40
2409;DHT22;8463;48.094;7.970;2022-07-23T15:28:12;30.20;1.90
2409;DHT22;8463;48.094;7.970;2022-07-23T15:30:38;29.80;3.00
2409;DHT22;8463;48.094;7.970;2022-07-23T15:33:04;29.30;2.80
2409;DHT22;8463;48.094;7.970;2022-07-23T15:35:31;29.20;4.10
2409;DHT22;8463;48.094;7.970;2022-07-23T15:37:56;29.50;3.80
2409;DHT22;8463;48.094;7.970;2022-07-23T15:40:22;29.70;3.90
2409;DHT22;8463;48.094;7.970;2022-07-23T15:42:48;29.80;4.00
2409;DHT22;8463;48.094;7.970;2022-07-23T15:45:13;30.00;3.00
2409;DHT22;8463;48.094;7.970;2022-07-23T15:47:40;30.00;4.10
2409;DHT22;8463;48.094;7.970;2022-07-23T15:50:07;30.30;3.20
2409;DHT22;8463;48.094;7.970;2022-07-23T15:52:33;30.70;3.00
2409;DHT22;8463;48.094;7.970;2022-07-23T15:54:58;30.80;1.80
2409;DHT22;8463;48.094;7.970;2022-07-23T15:57:24;30.50;2.20
2409;DHT22;8463;48.094;7.970;2022-07-23T15:59:50;30.50;2.20
2409;DHT22;8463;48.094;7.970;2022-07-23T16:02:16;30.70;2.40
2409;DHT22;8463;48.094;7.970;2022-07-23T16:04:42;30.80;2.50
2409;DHT22;8463;48.094;7.970;2022-07-23T16:07:07;30.90;1.20
2409;DHT22;8463;48.094;7.970;2022-07-23T16:09:33;31.10;1.50
2409;DHT22;8463;48.094;7.970;2022-07-23T16:11:59;31.00;2.00
2409;DHT22;8463;48.094;7.970;2022-07-23T16:14:25;31.00;2.70
2409;DHT22;8463;48.094;7.970;2022-07-23T16:16:51;31.30;2.00
2409;DHT22;8463;48.094;7.970;2022-07-23T16:19:17;31.00;1.00
2409;DHT22;8463;48.094;7.970;2022-07-23T16:21:43;31.10;1.90
2409;DHT22;8463;48.094;7.970;2022-07-23T16:24:08;31.00;1.00
2409;DHT22;8463;48.094;7.970;2022-07-23T16:26:34;31.00;1.00
2409;DHT22;8463;48.094;7.970;2022-07-23T16:29:00;31.20;1.00
2409;DHT22;8463;48.094;7.970;2022-07-23T16:31:25;31.30;1.00
2409;DHT22;8463;48.094;7.970;2022-07-23T16:33:52;31.20;1.00
2409;DHT22;8463;48.094;7.970;2022-07-23T16:36:18;31.10;1.00
2409;DHT22;8463;48.094;7.970;2022-07-23T16:38:45;30.80;1.30
2409;DHT22;8463;48.094;7.970;2022-07-23T16:41:11;30.80;1.90
2409;DHT22;8463;48.094;7.970;2022-07-23T16:43:37;30.70;2.40
2409;DHT22;8463;48.094;7.970;2022-07-23T16:46:04;30.70;2.50
2409;DHT22;8463;48.094;7.970;2022-07-23T16:48:30;30.50;2.90
2409;DHT22;8463;48.094;7.970;2022-07-23T16:50:56;30.40;3.00
2409;DHT22;8463;48.094;7.970;2022-07-23T16:53:21;30.30;3.40
2409;DHT22;8463;48.094;7.970;2022-07-23T16:55:47;30.20;3.60
2409;DHT22;8463;48.094;7.970;2022-07-23T16:58:13;30.10;4.10
2409;DHT22;8463;48.094;7.970;2022-07-23T17:00:39;29.90;3.80
2409;DHT22;8463;48.094;7.970;2022-07-23T17:03:04;29.80;3.20
2409;DHT22;8463;48.094;7.970;2022-07-23T17:05:30;29.70;3.90
2409;DHT22;8463;48.094;7.970;2022-07-23T17:07:55;29.60;3.60
2409;DHT22;8463;48.094;7.970;2022-07-23T17:10:22;29.50;3.80